createdAt,value
2018-06-13T00:00:38.557Z,17.19
2018-06-13T00:01:38.660Z,17.19
2018-06-13T00:02:38.460Z,17.19
2018-06-13T00:03:38.441Z,17.12
2018-06-13T00:04:38.686Z,17.12
2018-06-13T00:05:38.466Z,17.19
2018-06-13T00:06:38.454Z,17.12
2018-06-13T00:07:38.488Z,17.06
2018-06-13T00:08:38.471Z,17.06
2018-06-13T00:09:38.446Z,17.12
2018-06-13T00:10:38.519Z,17.12
2018-06-13T00:11:38.459Z,17.12
2018-06-13T00:12:38.576Z,17.12
2018-06-13T00:13:38.463Z,17.06
2018-06-13T00:14:38.454Z,17.06
2018-06-13T00:15:38.455Z,17.06
2018-06-13T00:16:38.484Z,17.06
2018-06-13T00:17:38.435Z,17.06
2018-06-13T00:18:38.467Z,17.12
2018-06-13T00:19:38.472Z,17.12
2018-06-13T00:20:38.529Z,17.12
2018-06-13T00:21:38.461Z,17.06
2018-06-13T00:22:38.890Z,17
2018-06-13T00:23:38.591Z,17.06
2018-06-13T00:24:39.151Z,17.06
2018-06-13T00:25:38.550Z,17
2018-06-13T00:26:38.465Z,17
2018-06-13T00:27:38.452Z,17
2018-06-13T00:28:38.650Z,17
2018-06-13T00:29:38.464Z,17
2018-06-13T00:30:38.460Z,17
2018-06-13T00:31:38.458Z,17
2018-06-13T00:32:38.556Z,17
2018-06-13T00:33:38.498Z,17
2018-06-13T00:34:38.501Z,17
2018-06-13T00:35:38.475Z,16.94
2018-06-13T00:36:38.454Z,16.94
2018-06-13T00:37:38.469Z,17
2018-06-13T00:38:38.468Z,16.94
2018-06-13T00:39:38.493Z,16.94
2018-06-13T00:40:38.493Z,17
2018-06-13T00:41:38.447Z,17
2018-06-13T00:42:38.498Z,16.94
2018-06-13T00:43:38.504Z,16.94
2018-06-13T00:44:38.542Z,16.94
2018-06-13T00:45:38.537Z,16.94
2018-06-13T00:46:38.597Z,17
2018-06-13T00:47:38.548Z,16.94
2018-06-13T00:48:38.598Z,16.94
2018-06-13T00:49:38.571Z,16.87
2018-06-13T00:50:38.544Z,16.87
2018-06-13T00:51:38.528Z,16.87
2018-06-13T00:52:38.586Z,16.87
2018-06-13T00:53:38.535Z,16.81
2018-06-13T00:54:38.513Z,16.81
2018-06-13T00:55:38.505Z,16.81
2018-06-13T00:56:38.469Z,16.87
2018-06-13T00:57:38.466Z,16.87
2018-06-13T00:58:38.470Z,16.87
2018-06-13T00:59:38.485Z,16.87
2018-06-13T01:00:38.491Z,16.81
2018-06-13T01:01:38.485Z,16.87
2018-06-13T01:02:38.480Z,16.87
2018-06-13T01:03:38.483Z,16.87
2018-06-13T01:04:38.734Z,16.87
2018-06-13T01:05:38.507Z,16.81
2018-06-13T01:06:38.477Z,16.81
2018-06-13T01:07:38.677Z,16.81
2018-06-13T01:08:38.583Z,16.81
2018-06-13T01:09:38.686Z,16.81
2018-06-13T01:10:40.318Z,16.87
2018-06-13T01:11:38.488Z,16.81
2018-06-13T01:12:38.470Z,16.81
2018-06-13T01:13:38.718Z,16.75
2018-06-13T01:14:38.626Z,16.81
2018-06-13T01:15:38.505Z,16.81
2018-06-13T01:16:38.535Z,16.81
2018-06-13T01:17:38.526Z,16.81
2018-06-13T01:18:38.486Z,16.75
2018-06-13T01:19:38.679Z,16.75
2018-06-13T01:20:38.489Z,16.69
2018-06-13T01:21:38.544Z,16.75
2018-06-13T01:22:38.494Z,16.75
2018-06-13T01:23:38.611Z,16.69
2018-06-13T01:24:38.797Z,16.75
2018-06-13T01:25:38.482Z,16.69
2018-06-13T01:26:38.516Z,16.69
2018-06-13T01:27:38.623Z,16.62
2018-06-13T01:28:38.527Z,16.62
2018-06-13T01:29:38.650Z,16.69
2018-06-13T01:30:38.557Z,16.62
2018-06-13T01:31:38.485Z,16.62
2018-06-13T01:32:38.607Z,16.56
2018-06-13T01:33:38.497Z,16.5
2018-06-13T01:34:38.542Z,16.56
2018-06-13T01:35:38.645Z,16.5
2018-06-13T01:36:38.496Z,16.5
2018-06-13T01:37:38.544Z,16.5
2018-06-13T01:38:38.563Z,16.5
2018-06-13T01:39:38.546Z,16.5
2018-06-13T01:40:38.518Z,16.5
2018-06-13T01:41:38.505Z,16.5
2018-06-13T01:42:38.490Z,16.56
2018-06-13T01:43:38.558Z,16.5
2018-06-13T01:44:38.692Z,16.5
2018-06-13T01:45:38.568Z,16.44
2018-06-13T01:46:38.558Z,16.5
2018-06-13T01:47:38.593Z,16.5
2018-06-13T01:48:38.675Z,16.5
2018-06-13T01:49:38.525Z,16.5
2018-06-13T01:50:38.503Z,16.5
2018-06-13T01:51:38.567Z,16.5
2018-06-13T01:52:38.610Z,16.5
2018-06-13T01:53:38.637Z,16.44
2018-06-13T01:54:38.573Z,16.44
2018-06-13T01:55:38.519Z,16.44
2018-06-13T01:56:38.592Z,16.44
2018-06-13T01:57:38.516Z,16.44
2018-06-13T01:58:38.552Z,16.37
2018-06-13T01:59:38.564Z,16.44
2018-06-13T02:00:38.542Z,16.37
2018-06-13T02:01:38.515Z,16.37
2018-06-13T02:02:38.504Z,16.37
2018-06-13T02:03:38.500Z,16.37
2018-06-13T02:04:38.509Z,16.37
2018-06-13T02:05:38.516Z,16.31
2018-06-13T02:06:38.516Z,16.31
2018-06-13T02:07:38.544Z,16.31
2018-06-13T02:08:38.519Z,16.31
2018-06-13T02:09:38.532Z,16.31
2018-06-13T02:10:38.534Z,16.31
2018-06-13T02:11:38.610Z,16.25
2018-06-13T02:12:38.503Z,16.31
2018-06-13T02:13:38.498Z,16.25
2018-06-13T02:14:38.531Z,16.31
2018-06-13T02:15:38.538Z,16.25
2018-06-13T02:16:38.517Z,16.25
2018-06-13T02:17:38.580Z,16.31
2018-06-13T02:18:38.643Z,16.25
2018-06-13T02:19:38.596Z,16.25
2018-06-13T02:20:38.681Z,16.25
2018-06-13T02:21:38.851Z,16.31
2018-06-13T02:22:38.570Z,16.31
2018-06-13T02:23:38.534Z,16.31
2018-06-13T02:24:38.528Z,16.31
2018-06-13T02:25:38.549Z,16.25
2018-06-13T02:26:38.544Z,16.25
2018-06-13T02:27:38.539Z,16.25
2018-06-13T02:28:38.557Z,16.25
2018-06-13T02:29:38.583Z,16.25
2018-06-13T02:30:38.591Z,16.25
2018-06-13T02:31:38.829Z,16.19
2018-06-13T02:32:38.523Z,16.19
2018-06-13T02:33:38.530Z,16.19
2018-06-13T02:34:38.542Z,16.19
2018-06-13T02:35:38.546Z,16.19
2018-06-13T02:36:38.622Z,16.19
2018-06-13T02:37:38.678Z,16.19
2018-06-13T02:38:38.537Z,16.19
2018-06-13T02:39:38.539Z,16.19
2018-06-13T02:40:38.580Z,16.19
2018-06-13T02:41:38.599Z,16.19
2018-06-13T02:42:38.542Z,16.19
2018-06-13T02:43:38.586Z,16.12
2018-06-13T02:44:38.565Z,16.12
2018-06-13T02:45:38.580Z,16.12
2018-06-13T02:46:38.593Z,16.12
2018-06-13T02:47:38.570Z,16.12
2018-06-13T02:48:38.573Z,16.06
2018-06-13T02:49:38.588Z,16.12
2018-06-13T02:50:38.644Z,16.06
2018-06-13T02:51:38.554Z,16
2018-06-13T02:52:38.547Z,16
2018-06-13T02:53:38.598Z,16
2018-06-13T02:54:38.581Z,16
2018-06-13T02:55:38.611Z,16
2018-06-13T02:56:38.553Z,15.94
2018-06-13T02:57:38.622Z,16
2018-06-13T02:58:38.589Z,15.94
2018-06-13T02:59:38.663Z,15.94
2018-06-13T03:00:38.541Z,15.94
2018-06-13T03:01:38.579Z,15.88
2018-06-13T03:02:38.578Z,15.88
2018-06-13T03:03:38.550Z,15.88
2018-06-13T03:04:38.600Z,15.88
2018-06-13T03:05:38.533Z,15.88
2018-06-13T03:06:38.553Z,15.88
2018-06-13T03:07:38.696Z,15.94
2018-06-13T03:08:38.544Z,15.88
2018-06-13T03:09:38.554Z,15.94
2018-06-13T03:10:38.547Z,15.88
2018-06-13T03:11:38.544Z,15.88
2018-06-13T03:12:38.562Z,15.88
2018-06-13T03:13:38.747Z,15.88
2018-06-13T03:14:38.568Z,15.94
2018-06-13T03:15:38.574Z,15.88
2018-06-13T03:16:38.582Z,15.88
2018-06-13T03:17:38.602Z,15.88
2018-06-13T03:18:38.552Z,15.88
2018-06-13T03:19:38.527Z,15.88
2018-06-13T03:20:38.534Z,15.88
2018-06-13T03:21:38.546Z,15.81
2018-06-13T03:22:38.591Z,15.81
2018-06-13T03:23:38.552Z,15.81
2018-06-13T03:24:38.552Z,15.88
2018-06-13T03:25:38.534Z,15.88
2018-06-13T03:26:38.564Z,15.88
2018-06-13T03:27:38.789Z,15.88
2018-06-13T03:28:38.564Z,15.88
2018-06-13T03:29:38.580Z,15.88
2018-06-13T03:30:38.588Z,15.88
2018-06-13T03:31:38.562Z,15.88
2018-06-13T03:32:38.651Z,15.88
2018-06-13T03:33:39.101Z,15.88
2018-06-13T03:34:38.557Z,15.88
2018-06-13T03:35:38.568Z,15.88
2018-06-13T03:36:38.595Z,15.88
2018-06-13T03:37:38.531Z,15.88
2018-06-13T03:38:38.575Z,15.81
2018-06-13T03:39:38.582Z,15.81
2018-06-13T03:40:38.638Z,15.81
2018-06-13T03:41:38.560Z,15.81
2018-06-13T03:42:38.629Z,15.81
2018-06-13T03:43:38.552Z,15.75
2018-06-13T03:44:38.579Z,15.75
2018-06-13T03:45:38.557Z,15.75
2018-06-13T03:46:38.575Z,15.75
2018-06-13T03:47:38.619Z,15.75
2018-06-13T03:48:38.617Z,15.75
2018-06-13T03:49:38.594Z,15.75
2018-06-13T03:50:38.591Z,15.69
2018-06-13T03:51:38.572Z,15.69
2018-06-13T03:52:38.594Z,15.75
2018-06-13T03:53:38.713Z,15.69
2018-06-13T03:54:38.603Z,15.69
2018-06-13T03:55:38.575Z,15.69
2018-06-13T03:56:38.734Z,15.69
2018-06-13T03:57:38.699Z,15.63
2018-06-13T03:58:38.655Z,15.69
2018-06-13T03:59:38.559Z,15.69
2018-06-13T04:00:38.582Z,15.69
2018-06-13T04:01:38.646Z,15.69
2018-06-13T04:02:38.643Z,15.69
2018-06-13T04:03:38.847Z,15.63
2018-06-13T04:04:38.577Z,15.69
2018-06-13T04:05:38.768Z,15.69
2018-06-13T04:06:38.658Z,15.69
2018-06-13T04:07:38.573Z,15.69
2018-06-13T04:08:38.576Z,15.69
2018-06-13T04:09:38.576Z,15.69
2018-06-13T04:10:38.651Z,15.69
2018-06-13T04:11:38.608Z,15.69
2018-06-13T04:12:38.612Z,15.69
2018-06-13T04:13:39.004Z,15.75
2018-06-13T04:14:38.618Z,15.75
2018-06-13T04:15:38.585Z,15.75
2018-06-13T04:16:38.659Z,15.75
2018-06-13T04:17:38.592Z,15.75
2018-06-13T04:18:38.614Z,15.75
2018-06-13T04:19:38.583Z,15.75
2018-06-13T04:20:38.605Z,15.75
2018-06-13T04:21:38.595Z,15.69
2018-06-13T04:22:38.583Z,15.75
2018-06-13T04:23:38.658Z,15.75
2018-06-13T04:24:38.575Z,15.75
2018-06-13T04:25:38.601Z,15.75
2018-06-13T04:26:38.578Z,15.69
2018-06-13T04:27:38.618Z,15.75
2018-06-13T04:28:38.611Z,15.69
2018-06-13T04:29:38.578Z,15.69
2018-06-13T04:30:38.614Z,15.69
2018-06-13T04:31:38.599Z,15.69
2018-06-13T04:32:38.978Z,15.75
2018-06-13T04:33:38.677Z,15.75
2018-06-13T04:34:38.599Z,15.75
2018-06-13T04:35:38.591Z,15.75
2018-06-13T04:36:38.632Z,15.75
2018-06-13T04:37:38.619Z,15.75
2018-06-13T04:38:38.653Z,15.75
2018-06-13T04:39:38.665Z,15.69
2018-06-13T04:40:38.603Z,15.75
2018-06-13T04:41:38.621Z,15.69
2018-06-13T04:42:38.601Z,15.69
2018-06-13T04:43:38.598Z,15.75
2018-06-13T04:44:38.589Z,15.69
2018-06-13T04:45:38.615Z,15.69
2018-06-13T04:46:38.615Z,15.69
2018-06-13T04:47:38.602Z,15.69
2018-06-13T04:48:38.595Z,15.69
2018-06-13T04:49:38.631Z,15.69
2018-06-13T04:50:38.656Z,15.75
2018-06-13T04:51:38.746Z,15.69
2018-06-13T04:52:38.620Z,15.75
2018-06-13T04:53:38.604Z,15.69
2018-06-13T04:54:38.687Z,15.69
2018-06-13T04:55:38.606Z,15.69
2018-06-13T04:56:38.599Z,15.69
2018-06-13T04:57:38.955Z,15.69
2018-06-13T04:58:38.792Z,15.69
2018-06-13T04:59:38.605Z,15.69
2018-06-13T05:00:38.600Z,15.69
2018-06-13T05:01:38.617Z,15.69
2018-06-13T05:02:38.672Z,15.63
2018-06-13T05:03:38.742Z,15.63
2018-06-13T05:04:38.666Z,15.63
2018-06-13T05:05:38.655Z,15.63
2018-06-13T05:06:38.612Z,15.63
2018-06-13T05:07:38.666Z,15.69
2018-06-13T05:08:38.660Z,15.63
2018-06-13T05:09:38.618Z,15.69
2018-06-13T05:10:38.677Z,15.63
2018-06-13T05:11:38.607Z,15.69
2018-06-13T05:12:38.628Z,15.69
2018-06-13T05:13:38.748Z,15.69
2018-06-13T05:14:38.617Z,15.69
2018-06-13T05:15:38.634Z,15.69
2018-06-13T05:16:38.685Z,15.63
2018-06-13T05:17:38.668Z,15.63
2018-06-13T05:18:38.621Z,15.69
2018-06-13T05:19:38.622Z,15.63
2018-06-13T05:20:38.632Z,15.69
2018-06-13T05:21:38.691Z,15.69
2018-06-13T05:22:38.633Z,15.69
2018-06-13T05:23:38.660Z,15.69
2018-06-13T05:24:38.634Z,15.69
2018-06-13T05:25:38.635Z,15.69
2018-06-13T05:26:38.684Z,15.69
2018-06-13T05:27:38.740Z,15.69
2018-06-13T05:28:38.928Z,15.69
2018-06-13T05:29:38.680Z,15.69
2018-06-13T05:30:38.660Z,15.75
2018-06-13T05:31:38.607Z,15.75
2018-06-13T05:32:38.756Z,15.69
2018-06-13T05:33:38.634Z,15.69
2018-06-13T05:34:38.631Z,15.75
2018-06-13T05:35:38.662Z,15.75
2018-06-13T05:36:38.598Z,15.75
2018-06-13T05:37:38.668Z,15.75
2018-06-13T05:38:38.677Z,15.75
2018-06-13T05:39:38.631Z,15.81
2018-06-13T05:40:38.657Z,15.88
2018-06-13T05:41:38.670Z,15.81
2018-06-13T05:42:38.667Z,15.81
2018-06-13T05:43:38.629Z,15.75
2018-06-13T05:44:38.674Z,15.81
2018-06-13T05:45:38.641Z,15.81
2018-06-13T05:46:38.634Z,15.81
2018-06-13T05:47:38.684Z,15.81
2018-06-13T05:48:38.695Z,15.81
2018-06-13T05:49:38.702Z,15.81
2018-06-13T05:50:38.634Z,15.81
2018-06-13T05:51:38.617Z,15.75
2018-06-13T05:52:38.691Z,15.75
2018-06-13T05:53:38.645Z,15.69
2018-06-13T05:54:38.648Z,15.69
2018-06-13T05:55:38.673Z,15.69
2018-06-13T05:56:38.652Z,15.69
2018-06-13T05:57:38.669Z,15.69
2018-06-13T05:58:38.729Z,15.63
2018-06-13T05:59:38.655Z,15.63
2018-06-13T06:00:38.648Z,15.63
2018-06-13T06:01:38.761Z,15.63
2018-06-13T06:02:38.711Z,15.69
2018-06-13T06:03:38.681Z,15.69
2018-06-13T06:04:38.779Z,15.69
2018-06-13T06:05:38.866Z,15.63
2018-06-13T06:06:38.661Z,15.69
2018-06-13T06:07:38.682Z,15.75
2018-06-13T06:08:38.717Z,15.75
2018-06-13T06:09:38.681Z,15.75
2018-06-13T06:10:38.701Z,15.75
2018-06-13T06:11:38.747Z,15.75
2018-06-13T06:12:38.715Z,15.75
2018-06-13T06:13:39.158Z,15.81
2018-06-13T06:14:38.691Z,15.88
2018-06-13T06:15:38.748Z,15.88
2018-06-13T06:16:38.684Z,15.94
2018-06-13T06:17:38.707Z,16
2018-06-13T06:18:38.798Z,16.06
2018-06-13T06:19:38.763Z,16.12
2018-06-13T06:20:38.868Z,16.19
2018-06-13T06:21:38.701Z,16.19
2018-06-13T06:22:38.680Z,16.19
2018-06-13T06:23:39.398Z,16.25
2018-06-13T06:24:38.652Z,16.31
2018-06-13T06:25:38.766Z,16.37
2018-06-13T06:26:38.698Z,16.25
2018-06-13T06:27:38.807Z,16.31
2018-06-13T06:28:39.381Z,16.25
2018-06-13T06:29:38.711Z,16.37
2018-06-13T06:30:38.673Z,16.31
2018-06-13T06:31:38.701Z,16.25
2018-06-13T06:32:38.726Z,16.31
2018-06-13T06:33:38.693Z,16.37
2018-06-13T06:34:38.802Z,16.31
2018-06-13T06:35:38.668Z,16.44
2018-06-13T06:36:38.677Z,16.44
2018-06-13T06:37:38.739Z,16.5
2018-06-13T06:38:38.681Z,16.5
2018-06-13T06:39:38.695Z,16.56
2018-06-13T06:40:38.765Z,16.56
2018-06-13T06:41:38.692Z,16.5
2018-06-13T06:42:38.661Z,16.62
2018-06-13T06:43:38.709Z,16.62
2018-06-13T06:44:39.095Z,16.69
2018-06-13T06:45:38.689Z,16.75
2018-06-13T06:46:38.673Z,16.81
2018-06-13T06:47:38.675Z,16.87
2018-06-13T06:48:38.662Z,16.87
2018-06-13T06:49:39.076Z,16.87
2018-06-13T06:50:38.891Z,16.81
2018-06-13T06:51:38.690Z,16.75
2018-06-13T06:52:38.685Z,16.75
2018-06-13T06:53:38.682Z,16.75
2018-06-13T06:54:38.669Z,16.62
2018-06-13T06:55:39.733Z,16.62
2018-06-13T06:56:38.679Z,16.62
2018-06-13T06:57:38.712Z,16.62
2018-06-13T06:58:38.709Z,16.56
2018-06-13T06:59:38.691Z,16.56
2018-06-13T07:00:38.695Z,16.56
2018-06-13T07:01:38.832Z,16.56
2018-06-13T07:02:39.154Z,16.5
2018-06-13T07:03:38.684Z,16.5
2018-06-13T07:04:38.718Z,16.37
2018-06-13T07:05:38.738Z,16.37
2018-06-13T07:06:38.712Z,16.31
2018-06-13T07:07:38.680Z,16.31
2018-06-13T07:08:38.680Z,16.31
2018-06-13T07:09:38.728Z,16.31
2018-06-13T07:10:38.679Z,16.31
2018-06-13T07:11:38.747Z,16.31
2018-06-13T07:12:38.661Z,16.31
2018-06-13T07:13:38.719Z,16.25
2018-06-13T07:14:38.860Z,16.19
2018-06-13T07:15:38.951Z,16.31
2018-06-13T07:16:38.896Z,16.25
2018-06-13T07:17:38.721Z,16.31
2018-06-13T07:18:38.701Z,16.31
2018-06-13T07:19:38.740Z,16.31
2018-06-13T07:20:38.698Z,16.31
2018-06-13T07:21:38.715Z,16.31
2018-06-13T07:22:38.701Z,16.37
2018-06-13T07:23:38.763Z,16.37
2018-06-13T07:24:39.028Z,16.31
2018-06-13T07:25:38.676Z,16.31
2018-06-13T07:26:38.699Z,16.31
2018-06-13T07:27:38.686Z,16.31
2018-06-13T07:28:38.726Z,16.37
2018-06-13T07:29:38.680Z,16.37
2018-06-13T07:30:38.722Z,16.37
2018-06-13T07:31:38.671Z,16.31
2018-06-13T07:32:39.334Z,16.31
2018-06-13T07:33:39.075Z,16.37
2018-06-13T07:34:38.720Z,16.44
2018-06-13T07:35:38.711Z,16.5
2018-06-13T07:36:38.695Z,16.5
2018-06-13T07:37:38.865Z,16.56
2018-06-13T07:38:38.708Z,16.62
2018-06-13T07:39:38.691Z,16.69
2018-06-13T07:40:38.687Z,16.62
2018-06-13T07:41:38.765Z,16.69
2018-06-13T07:42:38.701Z,16.62
2018-06-13T07:43:38.696Z,16.75
2018-06-13T07:44:38.694Z,16.69
2018-06-13T07:45:38.695Z,16.75
2018-06-13T07:46:38.709Z,16.87
2018-06-13T07:47:38.934Z,16.94
2018-06-13T07:48:38.756Z,16.94
2018-06-13T07:49:39.081Z,16.87
2018-06-13T07:50:38.713Z,16.94
2018-06-13T07:51:38.817Z,16.94
2018-06-13T07:52:38.752Z,16.94
2018-06-13T07:53:38.707Z,17
2018-06-13T07:54:38.738Z,17
2018-06-13T07:55:38.733Z,16.94
2018-06-13T07:56:38.696Z,16.87
2018-06-13T07:57:38.703Z,16.87
2018-06-13T07:58:38.707Z,16.94
2018-06-13T07:59:38.769Z,17
2018-06-13T08:00:38.699Z,17.06
2018-06-13T08:01:38.713Z,17
2018-06-13T08:02:38.719Z,17
2018-06-13T08:03:38.710Z,16.94
2018-06-13T08:04:38.840Z,16.94
2018-06-13T08:05:38.709Z,17.06
2018-06-13T08:06:38.737Z,17
2018-06-13T08:07:38.820Z,17
2018-06-13T08:08:40.728Z,17.06
2018-06-13T08:09:38.795Z,17.06
2018-06-13T08:10:38.801Z,17.06
2018-06-13T08:11:38.698Z,17.06
2018-06-13T08:12:38.774Z,17.06
2018-06-13T08:13:38.731Z,17.06
2018-06-13T08:14:38.776Z,17.06
2018-06-13T08:15:38.752Z,17.06
2018-06-13T08:16:38.742Z,17.06
2018-06-13T08:17:38.834Z,17.06
2018-06-13T08:18:38.781Z,17.06
2018-06-13T08:19:38.769Z,17.06
2018-06-13T08:20:38.726Z,17.06
2018-06-13T08:21:38.725Z,17.06
2018-06-13T08:22:38.711Z,17
2018-06-13T08:23:38.709Z,17
2018-06-13T08:24:38.752Z,17
2018-06-13T08:25:38.862Z,17
2018-06-13T08:26:38.926Z,16.94
2018-06-13T08:27:38.939Z,16.94
2018-06-13T08:28:38.720Z,16.87
2018-06-13T08:29:38.699Z,16.87
2018-06-13T08:30:38.735Z,16.87
2018-06-13T08:31:38.710Z,16.87
2018-06-13T08:32:38.763Z,16.94
2018-06-13T08:33:39.056Z,16.87
2018-06-13T08:34:38.732Z,16.94
2018-06-13T08:35:38.737Z,16.94
2018-06-13T08:36:39.014Z,17
2018-06-13T08:37:38.752Z,17
2018-06-13T08:38:38.719Z,17.12
2018-06-13T08:39:38.735Z,17.12
2018-06-13T08:40:38.899Z,17.06
2018-06-13T08:41:38.710Z,17.12
2018-06-13T08:42:38.769Z,17.12
2018-06-13T08:43:38.766Z,17.12
2018-06-13T08:44:38.718Z,17.12
2018-06-13T08:45:38.764Z,17.12
2018-06-13T08:46:38.725Z,17.19
2018-06-13T08:47:38.829Z,17.06
2018-06-13T08:48:39.224Z,17
2018-06-13T08:49:38.974Z,16.94
2018-06-13T08:50:38.761Z,16.94
2018-06-13T08:51:38.728Z,16.94
2018-06-13T08:52:38.876Z,16.94
2018-06-13T08:53:38.829Z,16.87
2018-06-13T08:54:38.873Z,16.94
2018-06-13T08:55:39.067Z,16.87
2018-06-13T08:56:38.749Z,16.81
2018-06-13T08:57:38.785Z,16.81
2018-06-13T08:58:38.726Z,16.81
2018-06-13T08:59:38.874Z,16.87
2018-06-13T09:00:39.025Z,16.87
2018-06-13T09:01:38.742Z,16.87
2018-06-13T09:02:38.791Z,16.94
2018-06-13T09:03:38.744Z,16.94
2018-06-13T09:04:38.733Z,16.94
2018-06-13T09:05:38.755Z,16.94
2018-06-13T09:06:38.719Z,16.94
2018-06-13T09:07:38.722Z,16.94
2018-06-13T09:08:38.728Z,17
2018-06-13T09:09:38.741Z,17
2018-06-13T09:10:38.747Z,17.12
2018-06-13T09:11:38.768Z,17.19
2018-06-13T09:12:38.730Z,17.19
2018-06-13T09:13:38.768Z,17.19
2018-06-13T09:14:38.725Z,17.25
2018-06-13T09:15:38.722Z,17.25
2018-06-13T09:16:38.735Z,17.25
2018-06-13T09:17:38.745Z,17.25
2018-06-13T09:18:38.778Z,17.25
2018-06-13T09:19:38.730Z,17.31
2018-06-13T09:20:38.732Z,17.31
2018-06-13T09:21:38.742Z,17.31
2018-06-13T09:22:38.756Z,17.37
2018-06-13T09:23:38.819Z,17.31
2018-06-13T09:24:38.755Z,17.31
2018-06-13T09:25:38.735Z,17.37
2018-06-13T09:26:39.046Z,17.25
2018-06-13T09:27:38.929Z,17.25
2018-06-13T09:28:38.724Z,17.19
2018-06-13T09:29:38.851Z,17.19
2018-06-13T09:30:38.732Z,17.19
2018-06-13T09:31:38.752Z,17.19
2018-06-13T09:32:39.385Z,17.19
2018-06-13T09:33:38.772Z,17.25
2018-06-13T09:34:38.727Z,17.25
2018-06-13T09:35:38.925Z,17.25
2018-06-13T09:36:38.744Z,17.25
2018-06-13T09:37:40.353Z,17.25
2018-06-13T09:38:38.783Z,17.19
2018-06-13T09:39:38.774Z,17.19
2018-06-13T09:40:38.739Z,17.12
2018-06-13T09:41:38.768Z,17.12
2018-06-13T09:42:38.761Z,17.12
2018-06-13T09:43:38.766Z,17.06
2018-06-13T09:44:38.760Z,17
2018-06-13T09:45:38.788Z,17
2018-06-13T09:46:38.750Z,17
2018-06-13T09:47:38.783Z,16.94
2018-06-13T09:48:38.802Z,16.94
2018-06-13T09:49:38.739Z,16.94
2018-06-13T09:50:38.741Z,16.87
2018-06-13T09:51:38.762Z,16.87
2018-06-13T09:52:38.755Z,16.87
2018-06-13T09:53:38.760Z,16.81
2018-06-13T09:54:38.769Z,16.75
2018-06-13T09:55:38.752Z,16.75
2018-06-13T09:56:39.005Z,16.69
2018-06-13T09:57:38.801Z,16.69
2018-06-13T09:58:38.825Z,16.69
2018-06-13T09:59:38.772Z,16.69
2018-06-13T10:00:38.755Z,16.75
2018-06-13T10:01:39.133Z,16.62
2018-06-13T10:02:38.829Z,16.69
2018-06-13T10:03:38.752Z,16.69
2018-06-13T10:04:39.197Z,16.69
2018-06-13T10:05:38.761Z,16.75
2018-06-13T10:06:38.982Z,16.75
2018-06-13T10:07:38.759Z,16.75
2018-06-13T10:08:39.119Z,16.75
2018-06-13T10:09:38.786Z,16.81
2018-06-13T10:10:38.785Z,16.81
2018-06-13T10:11:38.747Z,16.81
2018-06-13T10:12:38.865Z,16.87
2018-06-13T10:13:38.783Z,16.94
2018-06-13T10:14:38.778Z,16.81
2018-06-13T10:15:38.779Z,16.87
2018-06-13T10:16:38.802Z,16.94
2018-06-13T10:17:39.054Z,16.94
2018-06-13T10:18:39.186Z,17
2018-06-13T10:19:38.769Z,17
2018-06-13T10:20:38.772Z,17
2018-06-13T10:21:38.809Z,17
2018-06-13T10:22:38.777Z,17
2018-06-13T10:23:38.844Z,17
2018-06-13T10:24:38.798Z,17
2018-06-13T10:25:38.802Z,17.06
2018-06-13T10:26:39.041Z,17
2018-06-13T10:27:38.776Z,17.06
2018-06-13T10:28:38.779Z,17
2018-06-13T10:29:38.788Z,17.06
2018-06-13T10:30:38.795Z,16.94
2018-06-13T10:31:38.803Z,17
2018-06-13T10:32:38.793Z,17
2018-06-13T10:33:38.841Z,17.06
2018-06-13T10:34:38.782Z,17
2018-06-13T10:35:38.803Z,17.06
2018-06-13T10:36:39.320Z,17.12
2018-06-13T10:37:38.776Z,17.12
2018-06-13T10:38:38.973Z,17.19
2018-06-13T10:39:38.831Z,17.12
2018-06-13T10:40:38.857Z,17.06
2018-06-13T10:41:38.784Z,17.06
2018-06-13T10:42:38.953Z,17
2018-06-13T10:43:38.781Z,17.06
2018-06-13T10:44:38.808Z,17.06
2018-06-13T10:45:39.009Z,17.06
2018-06-13T10:46:38.789Z,17.06
2018-06-13T10:47:38.781Z,17.06
2018-06-13T10:48:38.994Z,17.12
2018-06-13T10:49:38.982Z,17.12
2018-06-13T10:50:38.846Z,17.06
2018-06-13T10:51:38.885Z,17.12
2018-06-13T10:52:38.801Z,17.12
2018-06-13T10:53:39.083Z,17.19
2018-06-13T10:54:38.814Z,17.06
2018-06-13T10:55:39.594Z,17
2018-06-13T10:56:38.786Z,17
2018-06-13T10:57:38.865Z,16.94
2018-06-13T10:58:39.067Z,17
2018-06-13T10:59:38.797Z,17
2018-06-13T11:00:38.815Z,16.94
2018-06-13T11:01:38.809Z,17
2018-06-13T11:02:39.087Z,17
2018-06-13T11:03:38.817Z,17.06
2018-06-13T11:04:39.315Z,17.06
2018-06-13T11:05:38.883Z,17.06
2018-06-13T11:06:38.811Z,17.06
2018-06-13T11:07:38.835Z,17.12
2018-06-13T11:08:38.831Z,17.12
2018-06-13T11:09:38.944Z,17.19
2018-06-13T11:10:38.796Z,17.19
2018-06-13T11:11:38.884Z,17.25
2018-06-13T11:12:38.806Z,17.25
2018-06-13T11:13:39.575Z,17.25
2018-06-13T11:14:39.513Z,17.37
2018-06-13T11:15:39.610Z,17.37
2018-06-13T11:16:39.532Z,17.31
2018-06-13T11:17:39.546Z,17.31
2018-06-13T11:18:39.635Z,17.31
2018-06-13T11:19:39.849Z,17.37
2018-06-13T11:20:39.582Z,17.37
2018-06-13T11:21:39.551Z,17.44
2018-06-13T11:22:39.545Z,17.44
2018-06-13T11:23:39.524Z,17.5
2018-06-13T11:24:39.619Z,17.5
2018-06-13T11:25:39.568Z,17.5
2018-06-13T11:26:39.577Z,17.44
2018-06-13T11:27:39.886Z,17.44
2018-06-13T11:28:39.540Z,17.44
2018-06-13T11:29:39.583Z,17.44
2018-06-13T11:30:39.494Z,17.44
2018-06-13T11:31:39.935Z,17.44
2018-06-13T11:32:39.554Z,17.5
2018-06-13T11:33:39.627Z,17.5
2018-06-13T11:34:39.529Z,17.56
2018-06-13T11:35:39.527Z,17.56
2018-06-13T11:36:39.482Z,17.62
2018-06-13T11:37:39.510Z,17.62
2018-06-13T11:38:39.544Z,17.62
2018-06-13T11:39:39.523Z,17.69
2018-06-13T11:40:39.488Z,17.75
2018-06-13T11:41:39.523Z,17.81
2018-06-13T11:42:39.547Z,17.87
2018-06-13T11:43:39.574Z,17.87
2018-06-13T11:44:39.517Z,17.94
2018-06-13T11:45:39.502Z,18
2018-06-13T11:46:39.528Z,17.94
2018-06-13T11:47:39.515Z,17.94
2018-06-13T11:48:39.615Z,18
2018-06-13T11:49:39.516Z,18.06
2018-06-13T11:50:39.519Z,18.06
2018-06-13T11:51:39.720Z,18.06
2018-06-13T11:52:39.588Z,18.06
2018-06-13T11:53:40.285Z,18.12
2018-06-13T11:54:39.733Z,18.19
2018-06-13T11:55:39.762Z,18.19
2018-06-13T11:56:40.076Z,18.12
2018-06-13T11:57:39.569Z,18.12
2018-06-13T11:58:39.481Z,18.19
2018-06-13T11:59:40.030Z,18.19
2018-06-13T12:00:39.813Z,18.25
2018-06-13T12:01:39.889Z,18.19
2018-06-13T12:02:39.566Z,18.06
2018-06-13T12:03:39.588Z,18.06
2018-06-13T12:04:39.630Z,18.06
2018-06-13T12:05:39.592Z,17.94
2018-06-13T12:06:39.785Z,17.94
2018-06-13T12:07:39.597Z,17.87
2018-06-13T12:08:39.744Z,17.81
2018-06-13T12:09:39.557Z,17.81
2018-06-13T12:10:39.589Z,17.81
2018-06-13T12:11:40.323Z,17.81
2018-06-13T12:12:38.986Z,17.87
2018-06-13T12:13:38.873Z,17.81
2018-06-13T12:14:38.829Z,17.75
2018-06-13T12:15:38.876Z,17.69
2018-06-13T12:16:38.846Z,17.75
2018-06-13T12:17:38.902Z,17.75
2018-06-13T12:18:38.842Z,17.75
2018-06-13T12:19:38.858Z,17.75
2018-06-13T12:20:39.667Z,17.75
2018-06-13T12:21:38.876Z,17.81
2018-06-13T12:22:39.656Z,17.75
2018-06-13T12:23:39.527Z,17.81
2018-06-13T12:24:38.819Z,17.75
2018-06-13T12:25:38.846Z,17.81
2018-06-13T12:26:38.834Z,17.81
2018-06-13T12:27:38.862Z,17.81
2018-06-13T12:28:39.975Z,17.75
2018-06-13T12:29:38.844Z,17.69
2018-06-13T12:30:39.569Z,17.69
2018-06-13T12:31:38.868Z,17.69
2018-06-13T12:32:38.843Z,17.69
2018-06-13T12:33:39.593Z,17.75
2018-06-13T12:34:38.901Z,17.81
2018-06-13T12:35:39.820Z,17.81
2018-06-13T12:36:38.839Z,17.81
2018-06-13T12:37:38.838Z,17.81
2018-06-13T12:38:38.862Z,17.75
2018-06-13T12:39:38.841Z,17.75
2018-06-13T12:40:40.377Z,17.75
2018-06-13T12:41:38.828Z,17.69
2018-06-13T12:42:38.857Z,17.75
2018-06-13T12:43:38.844Z,17.69
2018-06-13T12:44:38.866Z,17.75
2018-06-13T12:45:38.866Z,17.75
2018-06-13T12:46:38.867Z,17.75
2018-06-13T12:47:38.827Z,17.81
2018-06-13T12:48:38.856Z,17.81
2018-06-13T12:49:39.944Z,18
2018-06-13T12:50:38.865Z,17.87
2018-06-13T12:51:38.869Z,17.81
2018-06-13T12:52:39.560Z,17.81
2018-06-13T12:53:38.825Z,17.81
2018-06-13T12:54:38.832Z,17.87
2018-06-13T12:55:38.902Z,17.94
2018-06-13T12:56:38.845Z,17.87
2018-06-13T12:57:38.852Z,17.94
2018-06-13T12:58:39.892Z,17.94
2018-06-13T12:59:39.561Z,17.94